createdAt,value
2022-09-18T00:02:05.239Z,9.96
2022-09-18T00:04:52.051Z,9.96
2022-09-18T00:07:33.043Z,9.94
2022-09-18T00:10:27.059Z,9.95
2022-09-18T00:13:21.049Z,9.95
2022-09-18T00:16:15.140Z,9.94
2022-09-18T00:19:03.049Z,9.94
2022-09-18T00:21:37.551Z,9.94
2022-09-18T00:24:25.057Z,9.93
2022-09-18T00:27:05.057Z,9.93
2022-09-18T00:29:59.071Z,9.92
2022-09-18T00:32:53.058Z,9.93
2022-09-18T00:35:47.080Z,9.93
2022-09-18T00:38:34.064Z,9.92
2022-09-18T00:41:16.080Z,9.92
2022-09-18T00:44:43.080Z,9.92
2022-09-18T00:47:16.206Z,9.89
2022-09-18T00:50:06.083Z,9.88
2022-09-18T00:53:10.053Z,9.84
2022-09-18T00:56:04.078Z,9.81
2022-09-18T00:58:58.076Z,9.79
2022-09-18T01:01:52.129Z,9.80
2022-09-18T01:04:46.099Z,9.79
2022-09-18T01:07:55.093Z,9.79
2022-09-18T01:11:00.060Z,9.78
2022-09-18T01:13:52.190Z,9.77
2022-09-18T01:17:04.081Z,9.75
2022-09-18T01:20:04.083Z,9.74
2022-09-18T01:23:35.084Z,9.71
2022-09-18T01:26:37.096Z,9.69
2022-09-18T01:29:42.101Z,9.67
2022-09-18T01:32:26.265Z,9.66
2022-09-18T01:38:42.090Z,9.61
2022-09-18T01:41:38.087Z,9.61
2022-09-18T01:44:30.096Z,9.61
2022-09-18T01:47:12.109Z,9.62
2022-09-18T01:50:00.093Z,9.61
2022-09-18T01:52:40.208Z,9.62
2022-09-18T01:55:32.106Z,9.61
2022-09-18T01:58:11.184Z,9.61
2022-09-18T02:01:02.101Z,9.63
2022-09-18T02:03:55.088Z,9.62
2022-09-18T02:07:08.106Z,9.63
2022-09-18T02:09:55.086Z,9.62
2022-09-18T02:12:33.218Z,9.62
2022-09-18T02:15:22.102Z,9.62
2022-09-18T02:18:07.212Z,9.62
2022-09-18T02:20:54.116Z,9.64
2022-09-18T02:23:28.227Z,9.64
2022-09-18T02:26:21.130Z,9.64
2022-09-18T02:28:57.202Z,9.64
2022-09-18T02:31:46.151Z,9.63
2022-09-18T02:34:41.116Z,9.61
2022-09-18T02:38:02.126Z,9.62
2022-09-18T02:41:13.126Z,9.63
2022-09-18T02:44:04.127Z,9.63
2022-09-18T02:46:56.311Z,9.61
2022-09-18T02:49:49.107Z,9.58
2022-09-18T02:52:38.137Z,9.54
2022-09-18T02:55:43.125Z,9.53
2022-09-18T02:58:36.140Z,9.50
2022-09-18T03:01:14.248Z,9.47
2022-09-18T03:04:01.151Z,9.44
2022-09-18T03:06:34.239Z,9.42
2022-09-18T03:09:23.117Z,9.39
2022-09-18T03:12:03.144Z,9.36
2022-09-18T03:14:57.126Z,9.32
2022-09-18T03:17:44.142Z,9.30
2022-09-18T03:20:17.215Z,9.27
2022-09-18T03:23:04.148Z,9.27
2022-09-18T03:25:44.142Z,9.25
2022-09-18T03:28:31.124Z,9.22
2022-09-18T03:31:11.236Z,9.20
2022-09-18T03:34:05.137Z,9.17
2022-09-18T03:36:53.164Z,9.15
2022-09-18T03:39:33.136Z,9.10
2022-09-18T03:42:27.133Z,9.08
2022-09-18T03:45:21.163Z,9.04
2022-09-18T03:48:15.143Z,8.98
2022-09-18T03:51:02.166Z,8.93
2022-09-18T03:53:35.240Z,8.90
2022-09-18T03:56:22.160Z,8.87
2022-09-18T03:58:56.479Z,8.85
2022-09-18T04:01:43.231Z,8.80
2022-09-18T04:04:16.293Z,8.74
2022-09-18T04:07:03.160Z,8.72
2022-09-18T04:09:36.303Z,8.73
2022-09-18T04:12:23.180Z,8.68
2022-09-18T04:14:56.341Z,8.65
2022-09-18T04:17:43.158Z,8.62
2022-09-18T04:20:16.263Z,8.56
2022-09-18T04:23:03.173Z,8.53
2022-09-18T04:25:43.165Z,8.47
2022-09-18T04:28:37.177Z,8.41
2022-09-18T04:31:24.215Z,8.36
2022-09-18T04:33:57.331Z,8.27
2022-09-18T04:36:44.188Z,8.22
2022-09-18T04:39:17.416Z,8.21
2022-09-18T04:42:04.181Z,8.18
2022-09-18T04:44:37.285Z,8.18
2022-09-18T04:47:24.166Z,8.14
2022-09-18T04:49:57.608Z,8.14
2022-09-18T04:52:44.170Z,8.13
2022-09-18T04:55:17.287Z,8.13
2022-09-18T04:58:04.176Z,8.09
2022-09-18T05:00:38.339Z,8.05
2022-09-18T05:03:26.182Z,8.04
2022-09-18T05:05:59.270Z,8.00
2022-09-18T05:08:46.180Z,7.98
2022-09-18T05:11:19.279Z,7.94
2022-09-18T05:14:06.193Z,7.91
2022-09-18T05:16:39.462Z,7.90
2022-09-18T05:19:26.179Z,7.89
2022-09-18T05:21:59.326Z,7.90
2022-09-18T05:24:46.177Z,7.90
2022-09-18T05:27:21.451Z,7.90
2022-09-18T05:30:12.211Z,7.91
2022-09-18T05:32:46.734Z,7.90
2022-09-18T05:35:35.217Z,7.88
2022-09-18T05:38:09.305Z,7.87
2022-09-18T05:40:56.202Z,7.85
2022-09-18T05:43:29.303Z,7.84
2022-09-18T05:46:16.187Z,7.85
2022-09-18T05:48:56.201Z,7.85
2022-09-18T05:51:51.194Z,7.84
2022-09-18T05:54:38.231Z,7.84
2022-09-18T05:57:11.299Z,7.84
2022-09-18T05:59:58.216Z,7.85
2022-09-18T06:02:31.392Z,7.87
2022-09-18T06:05:18.210Z,7.90
2022-09-18T06:07:59.941Z,7.91
2022-09-18T06:10:54.190Z,7.97
2022-09-18T06:13:41.214Z,7.99
2022-09-18T06:16:21.236Z,8.01
2022-09-18T06:19:08.244Z,8.01
2022-09-18T06:21:41.324Z,8.03
2022-09-18T06:24:28.214Z,8.06
2022-09-18T06:27:01.318Z,8.11
2022-09-18T06:29:48.218Z,8.12
2022-09-18T06:32:21.646Z,8.15
2022-09-18T06:35:08.222Z,8.19
2022-09-18T06:37:41.304Z,8.23
2022-09-18T06:40:28.311Z,8.26
2022-09-18T06:43:10.237Z,8.31
2022-09-18T06:45:59.231Z,8.33
2022-09-18T06:48:40.225Z,8.37
2022-09-18T06:51:34.252Z,8.39
2022-09-18T06:54:31.232Z,8.40
2022-09-18T06:57:25.212Z,8.42
2022-09-18T07:00:13.225Z,8.43
2022-09-18T07:02:46.314Z,8.47
2022-09-18T07:05:35.231Z,8.49
2022-09-18T07:08:08.332Z,8.49
2022-09-18T07:10:55.265Z,8.51
2022-09-18T07:13:28.339Z,8.49
2022-09-18T07:16:15.283Z,8.51
2022-09-18T07:18:48.411Z,8.50
2022-09-18T07:21:35.265Z,8.52
2022-09-18T07:24:08.336Z,8.54
2022-09-18T07:26:55.243Z,8.55
2022-09-18T07:29:35.243Z,8.58
2022-09-18T07:32:22.249Z,8.60
2022-09-18T07:35:16.294Z,8.62
2022-09-18T07:38:14.259Z,8.64
2022-09-18T07:41:01.236Z,8.64
2022-09-18T07:43:41.283Z,8.63
2022-09-18T07:46:35.292Z,8.63
2022-09-18T07:49:29.242Z,8.62
2022-09-18T07:52:23.259Z,8.64
2022-09-18T07:55:10.263Z,8.67
2022-09-18T07:57:43.413Z,8.69
2022-09-18T08:00:31.251Z,8.71
2022-09-18T08:03:15.479Z,8.73
2022-09-18T08:06:02.310Z,8.72
2022-09-18T08:08:36.051Z,8.72
2022-09-18T08:11:22.278Z,8.77
2022-09-18T08:13:56.347Z,8.80
2022-09-18T08:16:43.465Z,8.82
2022-09-18T08:19:23.549Z,8.83
2022-09-18T08:22:11.414Z,8.88
2022-09-18T08:24:45.701Z,8.89
2022-09-18T08:27:32.468Z,8.89
2022-09-18T08:30:06.693Z,8.92
2022-09-18T08:33:03.410Z,8.95
2022-09-18T08:35:57.417Z,8.95
2022-09-18T08:38:44.581Z,8.96
2022-09-18T08:41:44.687Z,8.98
2022-09-18T08:44:42.653Z,9.05
2022-09-18T08:47:33.706Z,9.12
2022-09-18T08:50:36.266Z,9.23
2022-09-18T08:53:31.624Z,9.28
2022-09-18T08:56:06.775Z,9.33
2022-09-18T08:59:07.320Z,9.40
2022-09-18T09:02:37.777Z,9.45
2022-09-18T09:05:36.706Z,9.52
2022-09-18T09:08:57.415Z,9.51
2022-09-18T09:11:47.555Z,9.53
2022-09-18T09:14:58.016Z,9.57
2022-09-18T09:18:01.560Z,9.62
2022-09-18T09:21:02.427Z,9.62
2022-09-18T09:24:01.332Z,9.62
2022-09-18T09:26:42.341Z,9.65
2022-09-18T09:29:38.367Z,9.66
2022-09-18T09:32:35.309Z,9.67
2022-09-18T09:35:45.315Z,9.68
2022-09-18T09:39:06.304Z,9.68
2022-09-18T09:42:16.318Z,9.65
2022-09-18T09:45:13.296Z,9.66
2022-09-18T09:48:03.459Z,9.65
2022-09-18T09:50:59.294Z,9.67
2022-09-18T09:53:46.330Z,9.68
2022-09-18T09:56:51.594Z,9.70
2022-09-18T10:00:19.333Z,9.67
2022-09-18T10:03:20.319Z,9.66
2022-09-18T10:06:39.310Z,9.68
2022-09-18T10:09:47.303Z,9.69
2022-09-18T10:12:42.301Z,9.71
2022-09-18T10:15:55.381Z,9.76
2022-09-18T10:18:55.336Z,9.79
2022-09-18T10:21:52.326Z,9.85
2022-09-18T10:25:08.396Z,9.93
2022-09-18T10:27:42.943Z,9.96
2022-09-18T10:30:29.417Z,10.02
2022-09-18T10:33:03.836Z,10.11
2022-09-18T10:35:51.561Z,10.20
2022-09-18T10:38:38.005Z,10.24
2022-09-18T10:41:24.478Z,10.25
2022-09-18T10:44:18.785Z,10.22
2022-09-18T10:47:12.366Z,10.14
2022-09-18T10:50:16.419Z,10.09
2022-09-18T10:53:34.352Z,10.08
2022-09-18T10:56:31.422Z,10.00
2022-09-18T10:59:39.336Z,9.94
2022-09-18T11:02:20.687Z,9.88
2022-09-18T11:05:09.335Z,9.81
2022-09-18T11:07:49.345Z,9.80
2022-09-18T11:10:39.333Z,9.79
2022-09-18T11:13:19.358Z,9.83
2022-09-18T11:16:09.417Z,9.95
2022-09-18T11:18:50.365Z,10.08
2022-09-18T11:21:45.368Z,10.21
2022-09-18T11:24:35.361Z,10.32
2022-09-18T11:27:29.400Z,10.38
2022-09-18T11:30:30.354Z,10.43
2022-09-18T11:33:33.367Z,10.45
2022-09-18T11:36:30.362Z,10.45
2022-09-18T11:39:24.498Z,10.48
2022-09-18T11:42:13.427Z,10.50
2022-09-18T11:45:01.422Z,10.58
2022-09-18T11:47:58.368Z,10.64
2022-09-18T11:50:53.423Z,10.66
2022-09-18T11:53:54.366Z,10.68
2022-09-18T11:56:48.353Z,10.68
2022-09-18T11:59:56.482Z,10.73
2022-09-18T12:02:47.473Z,10.84
2022-09-18T12:05:42.372Z,10.90
2022-09-18T12:08:51.905Z,10.93
2022-09-18T12:11:53.019Z,11.01
2022-09-18T12:14:55.014Z,11.05
2022-09-18T12:17:53.101Z,11.10
2022-09-18T12:20:42.049Z,11.14
2022-09-18T12:23:33.012Z,11.10
2022-09-18T12:26:29.769Z,11.05
2022-09-18T12:29:22.991Z,11.00
2022-09-18T12:32:28.046Z,10.97
2022-09-18T12:35:43.426Z,10.92
2022-09-18T12:38:41.429Z,10.86
2022-09-18T12:41:48.979Z,10.82
2022-09-18T12:45:06.709Z,10.77
2022-09-18T12:48:15.661Z,10.70
2022-09-18T12:51:07.133Z,10.65
2022-09-18T12:54:34.704Z,10.61
2022-09-18T12:57:40.854Z,10.58
2022-09-18T13:00:34.722Z,10.53
2022-09-18T13:03:35.725Z,10.48
2022-09-18T13:06:22.626Z,10.44
2022-09-18T13:09:26.134Z,10.43
2022-09-18T13:12:12.688Z,10.43
2022-09-18T13:15:14.691Z,10.40
2022-09-18T13:18:41.418Z,10.39
2022-09-18T13:21:24.520Z,10.38
2022-09-18T13:24:12.433Z,10.34
2022-09-18T13:26:47.501Z,10.30
2022-09-18T13:29:52.437Z,10.19
2022-09-18T13:32:37.945Z,10.08
2022-09-18T13:35:37.402Z,9.98
2022-09-18T13:38:35.406Z,9.90
2022-09-18T13:41:29.404Z,9.74
2022-09-18T13:44:29.397Z,9.57
2022-09-18T13:47:22.442Z,9.44
2022-09-18T13:50:16.424Z,9.32
2022-09-18T13:53:07.393Z,9.25
2022-09-18T13:55:54.502Z,9.18
2022-09-18T13:58:57.422Z,9.13
2022-09-18T14:01:48.592Z,9.08
2022-09-18T14:04:47.389Z,9.05
2022-09-18T14:07:23.520Z,9.03
2022-09-18T14:10:29.389Z,9.04
2022-09-18T14:13:19.386Z,9.04
2022-09-18T14:16:18.512Z,9.05
2022-09-18T14:19:18.419Z,9.07
2022-09-18T14:22:14.414Z,9.05
2022-09-18T14:25:11.385Z,9.09
2022-09-18T14:28:03.339Z,9.16
2022-09-18T14:30:50.404Z,9.23
2022-09-18T14:33:26.636Z,9.28
2022-09-18T14:36:14.867Z,9.31
2022-09-18T14:38:50.839Z,9.34
2022-09-18T14:41:41.402Z,9.35
2022-09-18T14:44:29.398Z,9.36
2022-09-18T14:47:34.463Z,9.38
2022-09-18T14:50:27.397Z,9.40
2022-09-18T14:53:02.589Z,9.41
2022-09-18T14:55:57.485Z,9.42
2022-09-18T14:58:36.534Z,9.41
2022-09-18T15:01:30.462Z,9.43
2022-09-18T15:04:13.614Z,9.45
2022-09-18T15:06:56.464Z,9.46
2022-09-18T15:09:39.407Z,9.47
2022-09-18T15:12:23.891Z,9.47
2022-09-18T15:15:05.420Z,9.45
2022-09-18T15:17:45.411Z,9.44
2022-09-18T15:20:23.668Z,9.44
2022-09-18T15:23:32.472Z,9.45
2022-09-18T15:26:15.477Z,9.45
2022-09-18T15:29:11.474Z,9.45
2022-09-18T15:31:59.531Z,9.47
2022-09-18T15:34:39.171Z,9.43
2022-09-18T15:37:29.451Z,9.43
2022-09-18T15:40:20.547Z,9.41
2022-09-18T15:43:49.330Z,9.37
2022-09-18T15:46:39.575Z,9.34
2022-09-18T15:49:52.521Z,9.30
2022-09-18T15:53:17.455Z,9.26
2022-09-18T15:56:08.493Z,9.20
2022-09-18T15:58:47.650Z,9.18
2022-09-18T16:01:43.579Z,9.15
2022-09-18T16:04:27.073Z,9.13
2022-09-18T16:07:26.497Z,9.12
2022-09-18T16:09:59.823Z,9.11
2022-09-18T16:12:48.499Z,9.05
2022-09-18T16:15:32.493Z,9.03
2022-09-18T16:18:28.544Z,9.01
2022-09-18T16:21:08.493Z,8.97
2022-09-18T16:24:12.537Z,8.94
2022-09-18T16:27:06.515Z,8.91
2022-09-18T16:29:54.598Z,8.87
2022-09-18T16:32:27.745Z,8.83
2022-09-18T16:35:15.521Z,8.79
2022-09-18T16:37:49.754Z,8.77
2022-09-18T16:40:37.545Z,8.73
2022-09-18T16:43:17.520Z,8.72
2022-09-18T16:46:04.565Z,8.67
2022-09-18T16:48:38.374Z,8.67
2022-09-18T16:51:25.519Z,8.69
2022-09-18T16:54:05.526Z,8.68
2022-09-18T16:57:05.796Z,8.65
2022-09-18T16:59:53.561Z,8.64
2022-09-18T17:02:27.696Z,8.64
2022-09-18T17:05:15.523Z,8.61
2022-09-18T17:07:48.744Z,8.62
2022-09-18T17:10:45.002Z,8.60
2022-09-18T17:13:18.660Z,8.59
2022-09-18T17:16:05.551Z,8.57
2022-09-18T17:18:46.550Z,8.58
2022-09-18T17:21:41.533Z,8.56
2022-09-18T17:24:37.521Z,8.57
2022-09-18T17:27:32.551Z,8.57
2022-09-18T17:30:31.277Z,8.54
2022-09-18T17:33:20.567Z,8.54
2022-09-18T17:35:53.724Z,8.51
2022-09-18T17:38:43.524Z,8.51
2022-09-18T17:41:27.535Z,8.50
2022-09-18T17:44:22.566Z,8.49
2022-09-18T17:47:11.564Z,8.48
2022-09-18T17:49:44.666Z,8.46
2022-09-18T17:52:31.570Z,8.46
2022-09-18T17:55:13.525Z,8.47
2022-09-18T17:58:07.518Z,8.43
2022-09-18T18:00:55.583Z,8.40
2022-09-18T18:03:38.561Z,8.40
2022-09-18T18:06:35.567Z,8.41
2022-09-18T18:09:22.580Z,8.39
2022-09-18T18:11:55.786Z,8.37
2022-09-18T18:14:43.525Z,8.36
2022-09-18T18:17:17.936Z,8.32
2022-09-18T18:20:04.567Z,8.32
2022-09-18T18:22:37.757Z,8.32
2022-09-18T18:25:24.557Z,8.33
2022-09-18T18:27:57.847Z,8.31
2022-09-18T18:30:45.566Z,8.28
2022-09-18T18:33:18.723Z,8.26
2022-09-18T18:36:20.578Z,8.26
2022-09-18T18:39:04.564Z,8.24
2022-09-18T18:41:52.570Z,8.19
2022-09-18T18:44:25.644Z,8.15
2022-09-18T18:47:12.551Z,8.12
2022-09-18T18:49:52.547Z,8.09
2022-09-18T18:52:46.547Z,8.04
2022-09-18T18:55:33.571Z,8.01
2022-09-18T18:58:13.569Z,7.97
2022-09-18T19:01:09.979Z,7.96
2022-09-18T19:04:02.667Z,7.94
2022-09-18T19:06:36.853Z,7.92
2022-09-18T19:09:29.570Z,7.92
2022-09-18T19:12:10.557Z,7.89
2022-09-18T19:15:05.565Z,7.89
2022-09-18T19:17:56.562Z,7.86
2022-09-18T19:20:31.013Z,7.85
2022-09-18T19:23:19.612Z,7.83
2022-09-18T19:25:52.700Z,7.81
2022-09-18T19:28:54.569Z,7.76
2022-09-18T19:31:50.630Z,7.75
2022-09-18T19:34:44.571Z,7.74
2022-09-18T19:37:38.555Z,7.70
2022-09-18T19:40:32.664Z,7.67
2022-09-18T19:43:24.562Z,7.66
2022-09-18T19:46:04.553Z,7.65
2022-09-18T19:48:58.587Z,7.66
2022-09-18T19:51:45.574Z,7.63
2022-09-18T19:54:19.625Z,7.63
2022-09-18T19:57:06.554Z,7.62
2022-09-18T19:59:47.607Z,7.60
2022-09-18T20:02:41.643Z,7.59
2022-09-18T20:05:35.568Z,7.56
2022-09-18T20:08:22.582Z,7.55
2022-09-18T20:10:55.843Z,7.52
2022-09-18T20:13:42.571Z,7.52
2022-09-18T20:16:23.655Z,7.51
2022-09-18T20:19:12.590Z,7.48
2022-09-18T20:21:45.668Z,7.46
2022-09-18T20:24:32.583Z,7.44
2022-09-18T20:27:06.689Z,7.42
2022-09-18T20:29:53.618Z,7.39
2022-09-18T20:32:26.686Z,7.40
2022-09-18T20:35:20.592Z,7.37
2022-09-18T20:38:09.624Z,7.37
2022-09-18T20:40:49.615Z,7.35
2022-09-18T20:43:36.597Z,7.34
2022-09-18T20:46:14.199Z,7.30
2022-09-18T20:49:03.715Z,7.29
2022-09-18T20:51:38.713Z,7.27
2022-09-18T20:54:29.625Z,7.23
2022-09-18T20:57:04.406Z,7.22
2022-09-18T20:59:51.612Z,7.17
2022-09-18T21:02:25.303Z,7.12
2022-09-18T21:05:17.621Z,7.03
2022-09-18T21:07:53.072Z,7.00
2022-09-18T21:10:41.642Z,6.97
2022-09-18T21:13:21.616Z,6.96
2022-09-18T21:16:15.700Z,6.93
2022-09-18T21:19:05.693Z,6.92
2022-09-18T21:21:47.623Z,6.90
2022-09-18T21:24:41.623Z,6.88
2022-09-18T21:27:28.608Z,6.85
2022-09-18T21:30:01.703Z,6.82
2022-09-18T21:32:50.116Z,6.82
2022-09-18T21:35:25.705Z,6.80
2022-09-18T21:38:13.078Z,6.76
2022-09-18T21:40:53.635Z,6.72
2022-09-18T21:43:51.629Z,6.68
2022-09-18T21:46:42.683Z,6.64
2022-09-18T21:49:23.620Z,6.60
2022-09-18T21:52:12.624Z,6.56
2022-09-18T21:54:53.631Z,6.51
2022-09-18T21:57:47.632Z,6.46
2022-09-18T22:00:34.655Z,6.41
2022-09-18T22:03:08.704Z,6.37
2022-09-18T22:05:55.630Z,6.36
2022-09-18T22:08:35.626Z,6.30
2022-09-18T22:11:34.653Z,6.26
2022-09-18T22:14:25.621Z,6.22
2022-09-18T22:16:58.777Z,6.22
2022-09-18T22:19:45.633Z,6.18
2022-09-18T22:22:19.468Z,6.15
2022-09-18T22:25:06.642Z,6.12
2022-09-18T22:27:39.927Z,6.09
2022-09-18T22:30:26.635Z,6.06
2022-09-18T22:33:06.753Z,5.99
2022-09-18T22:36:00.649Z,5.98
2022-09-18T22:38:47.653Z,5.94
2022-09-18T22:41:20.720Z,5.94
2022-09-18T22:44:07.639Z,5.95
2022-09-18T22:46:43.764Z,5.95
2022-09-18T22:49:30.650Z,5.94
2022-09-18T22:52:03.731Z,5.90
2022-09-18T22:54:50.623Z,5.86
2022-09-18T22:57:23.753Z,5.85
2022-09-18T23:00:15.848Z,5.78
2022-09-18T23:02:56.669Z,5.79
2022-09-18T23:05:51.648Z,5.78
2022-09-18T23:08:39.663Z,5.75
2022-09-18T23:11:16.211Z,5.71
2022-09-18T23:14:07.641Z,5.62
2022-09-18T23:16:42.757Z,5.61
2022-09-18T23:19:33.677Z,5.57
2022-09-18T23:22:10.021Z,5.57
2022-09-18T23:24:56.670Z,5.59
2022-09-18T23:27:29.762Z,5.54
2022-09-18T23:30:16.678Z,5.51
2022-09-18T23:32:49.757Z,5.53
2022-09-18T23:35:36.667Z,5.55
2022-09-18T23:38:16.664Z,5.50
2022-09-18T23:41:11.680Z,5.51
2022-09-18T23:43:52.688Z,5.53
2022-09-18T23:46:39.754Z,5.50
2022-09-18T23:49:13.857Z,5.43
2022-09-18T23:52:01.662Z,5.40
2022-09-18T23:54:36.787Z,5.35
2022-09-18T23:57:23.659Z,5.34
